Time;durP1;ratioP1;P1;durP2;ratioP2;P2;SDS_P1;SDS_P2;PMS_P1;PMS_P2;Temp;Humidity;BMP_temperature;BMP_pressure;BME280_temperature;BME280_humidity;BME280_pressure;Samples;Min_cycle;Max_cycle;Signal;HPM_P1;HPM_P2
2024/01/03 00:02:12;;;;;;;7.33;3.27;;;;;;;;;;5095404;28;20942;-67
2024/01/03 00:04:39;;;;;;;6.20;3.23;;;;;;;;;;5089983;28;20483;-66
2024/01/03 00:07:06;;;;;;;8.83;3.60;;;;;;;;;;5100439;28;20435;-66
2024/01/03 00:09:32;;;;;;;10.77;3.17;;;;;;;;;;5094885;28;20995;-69
2024/01/03 00:12:00;;;;;;;5.60;3.70;;;;;;;;;;5102241;28;20430;-67
2024/01/03 00:14:31;;;;;;;6.53;3.73;;;;;;;;;;5095605;28;20497;-65
2024/01/03 00:17:00;;;;;;;7.17;4.50;;;;;;;;;;5102329;28;20451;-65
2024/01/03 00:19:26;;;;;;;6.10;3.27;;;;;;;;;;5104038;28;20447;-65
2024/01/03 00:21:53;;;;;;;5.70;4.00;;;;;;;;;;5092105;28;21055;-65
2024/01/03 00:24:19;;;;;;;10.17;4.07;;;;;;;;;;5106120;28;20455;-65
2024/01/03 00:26:46;;;;;;;6.13;3.53;;;;;;;;;;5098845;28;20440;-66
2024/01/03 00:29:27;;;;;;;8.70;3.30;;;;;;;;;;5096503;28;20538;-66
2024/01/03 00:31:55;;;;;;;8.77;3.80;;;;;;;;;;5078052;28;20518;-68
2024/01/03 00:34:32;;;;;;;5.50;3.40;;;;;;;;;;5100559;28;20459;-69
2024/01/03 00:36:59;;;;;;;8.20;3.70;;;;;;;;;;5098681;28;20439;-68
2024/01/03 00:39:26;;;;;;;7.97;3.10;;;;;;;;;;5086495;28;20495;-68
2024/01/03 00:41:52;;;;;;;7.23;3.70;;;;;;;;;;5099712;28;20439;-68
2024/01/03 00:44:19;;;;;;;4.07;2.57;;;;;;;;;;5099399;28;20477;-67
2024/01/03 00:46:45;;;;;;;11.67;3.63;;;;;;;;;;5096034;28;20467;-65
2024/01/03 00:49:13;;;;;;;3.60;2.97;;;;;;;;;;5094097;28;20887;-66
2024/01/03 00:51:40;;;;;;;5.53;2.67;;;;;;;;;;5095886;28;20530;-66
2024/01/03 00:54:06;;;;;;;6.20;3.60;;;;;;;;;;5097250;28;20451;-67
2024/01/03 00:56:33;;;;;;;7.83;2.87;;;;;;;;;;5113378;28;20478;-66
2024/01/03 00:58:59;;;;;;;12.10;2.43;;;;;;;;;;5098153;28;20537;-66
2024/01/03 01:01:25;;;;;;;6.63;2.47;;;;;;;;;;5101454;28;20533;-68
2024/01/03 01:03:52;;;;;;;6.27;2.23;;;;;;;;;;5091983;28;20578;-69
2024/01/03 01:06:19;;;;;;;6.53;2.47;;;;;;;;;;5099295;28;20478;-68
2024/01/03 01:08:46;;;;;;;7.20;3.57;;;;;;;;;;5100397;28;20897;-68
2024/01/03 01:11:12;;;;;;;5.70;3.30;;;;;;;;;;5098203;28;20500;-68
2024/01/03 01:13:39;;;;;;;6.33;3.37;;;;;;;;;;5092286;28;20509;-66
2024/01/03 01:16:05;;;;;;;8.23;2.80;;;;;;;;;;5095482;28;20444;-67
2024/01/03 01:18:32;;;;;;;8.30;4.83;;;;;;;;;;5097988;28;20542;-68
2024/01/03 01:20:58;;;;;;;11.40;3.40;;;;;;;;;;5093151;28;20470;-68
2024/01/03 01:23:26;;;;;;;9.43;3.87;;;;;;;;;;5097803;28;20466;-67
2024/01/03 01:25:52;;;;;;;11.63;3.83;;;;;;;;;;5094749;28;20487;-67
2024/01/03 01:28:18;;;;;;;9.93;3.60;;;;;;;;;;5091377;28;20515;-68
2024/01/03 01:30:45;;;;;;;9.23;2.83;;;;;;;;;;5091831;28;20562;-67
2024/01/03 01:33:11;;;;;;;6.33;3.20;;;;;;;;;;5093325;28;20438;-67
2024/01/03 01:35:38;;;;;;;9.10;4.00;;;;;;;;;;5093274;28;20624;-67
2024/01/03 01:38:06;;;;;;;8.13;4.33;;;;;;;;;;5091397;28;20459;-66
2024/01/03 01:40:35;;;;;;;9.60;3.70;;;;;;;;;;5091550;28;20443;-65
2024/01/03 01:43:01;;;;;;;4.43;3.20;;;;;;;;;;5092947;28;20491;-66
2024/01/03 01:45:27;;;;;;;6.90;4.43;;;;;;;;;;5090658;28;20478;-66
2024/01/03 01:47:54;;;;;;;5.70;3.80;;;;;;;;;;5093662;28;20498;-68
2024/01/03 01:50:20;;;;;;;6.57;3.43;;;;;;;;;;5087611;28;20562;-69
2024/01/03 01:52:48;;;;;;;9.50;3.60;;;;;;;;;;5091018;28;20486;-69
2024/01/03 01:55:14;;;;;;;6.40;4.20;;;;;;;;;;5089381;28;20490;-70
2024/01/03 01:57:42;;;;;;;8.80;3.40;;;;;;;;;;5098242;28;20439;-68
2024/01/03 02:00:09;;;;;;;8.03;4.00;;;;;;;;;;5088231;28;20467;-69
2024/01/03 02:02:36;;;;;;;10.83;4.93;;;;;;;;;;5092727;28;20439;-68
2024/01/03 02:05:02;;;;;;;11.83;3.20;;;;;;;;;;5087539;28;20524;-67
2024/01/03 02:07:31;;;;;;;7.40;3.20;;;;;;;;;;5093392;28;20448;-67
2024/01/03 02:09:57;;;;;;;13.20;3.50;;;;;;;;;;5099643;28;20507;-69
2024/01/03 02:12:27;;;;;;;8.87;3.80;;;;;;;;;;5097530;28;20466;-70
2024/01/03 02:14:55;;;;;;;4.47;2.90;;;;;;;;;;5088294;28;20463;-69
2024/01/03 02:17:22;;;;;;;7.53;4.40;;;;;;;;;;5089598;28;20446;-70
2024/01/03 02:19:48;;;;;;;3.80;3.23;;;;;;;;;;5095696;28;20486;-70
2024/01/03 02:22:16;;;;;;;5.33;3.70;;;;;;;;;;5096451;28;20906;-70
2024/01/03 02:24:42;;;;;;;7.83;4.00;;;;;;;;;;5094580;28;20526;-70
2024/01/03 02:27:09;;;;;;;7.13;4.83;;;;;;;;;;5095187;28;20470;-69
2024/01/03 02:29:35;;;;;;;11.70;4.60;;;;;;;;;;5095585;28;20889;-69
2024/01/03 02:32:01;;;;;;;9.20;4.77;;;;;;;;;;5093054;28;20502;-69
2024/01/03 02:34:28;;;;;;;7.17;3.93;;;;;;;;;;5100195;28;20487;-70
2024/01/03 02:36:56;;;;;;;6.20;2.70;;;;;;;;;;5098188;28;20471;-69
2024/01/03 02:39:23;;;;;;;5.20;2.53;;;;;;;;;;5100228;28;20485;-69
2024/01/03 02:41:50;;;;;;;4.80;3.73;;;;;;;;;;5098136;28;20531;-69
2024/01/03 02:44:16;;;;;;;6.30;3.37;;;;;;;;;;5097132;28;20489;-68
2024/01/03 02:46:42;;;;;;;6.80;4.00;;;;;;;;;;5096754;28;20542;-68
2024/01/03 02:49:10;;;;;;;7.73;3.73;;;;;;;;;;5100395;28;21009;-67
2024/01/03 02:51:36;;;;;;;9.47;3.73;;;;;;;;;;5096512;28;20547;-67
2024/01/03 02:54:03;;;;;;;7.83;3.47;;;;;;;;;;5099634;28;20451;-68
2024/01/03 02:56:30;;;;;;;9.50;5.70;;;;;;;;;;5100559;28;20510;-68
2024/01/03 02:58:57;;;;;;;6.83;3.23;;;;;;;;;;5101940;28;20549;-66
2024/01/03 03:01:23;;;;;;;7.00;3.53;;;;;;;;;;5100113;28;20466;-68
2024/01/03 03:03:50;;;;;;;7.27;4.03;;;;;;;;;;5093857;28;20451;-69
2024/01/03 03:06:16;;;;;;;6.50;3.33;;;;;;;;;;5108284;28;20441;-68
2024/01/03 03:08:42;;;;;;;12.83;3.47;;;;;;;;;;5101373;28;20490;-67
2024/01/03 03:11:12;;;;;;;11.53;4.77;;;;;;;;;;5095220;28;21110;-68
2024/01/03 03:13:40;;;;;;;8.07;3.27;;;;;;;;;;5093538;28;20481;-69
2024/01/03 03:16:07;;;;;;;6.20;4.00;;;;;;;;;;5097486;28;20542;-69
2024/01/03 03:18:33;;;;;;;10.27;3.87;;;;;;;;;;5095414;28;20487;-69
2024/01/03 03:21:00;;;;;;;10.27;3.80;;;;;;;;;;5103930;28;20439;-69
2024/01/03 03:23:26;;;;;;;6.37;3.83;;;;;;;;;;5102722;28;20529;-69
2024/01/03 03:25:52;;;;;;;7.23;3.77;;;;;;;;;;5097086;28;20538;-69
2024/01/03 03:28:19;;;;;;;10.67;4.40;;;;;;;;;;5095744;28;20543;-68
2024/01/03 03:30:47;;;;;;;7.77;3.57;;;;;;;;;;5096951;28;20776;-69
2024/01/03 03:33:13;;;;;;;8.97;4.03;;;;;;;;;;5098994;28;20533;-69
2024/01/03 03:35:39;;;;;;;9.57;3.93;;;;;;;;;;5095360;28;20922;-70
2024/01/03 03:38:06;;;;;;;8.70;4.70;;;;;;;;;;5103267;28;20525;-69
2024/01/03 03:40:32;;;;;;;8.23;2.97;;;;;;;;;;5098028;28;20533;-68
2024/01/03 03:42:59;;;;;;;9.10;3.73;;;;;;;;;;5094169;28;20942;-68
2024/01/03 03:45:25;;;;;;;11.70;3.20;;;;;;;;;;5107829;28;20454;-68
2024/01/03 03:47:53;;;;;;;9.20;3.47;;;;;;;;;;5102770;28;20486;-67
2024/01/03 03:50:19;;;;;;;7.50;3.07;;;;;;;;;;5101341;28;20510;-68
2024/01/03 03:52:45;;;;;;;10.87;3.80;;;;;;;;;;5100988;28;20482;-67
2024/01/03 03:55:13;;;;;;;5.50;3.67;;;;;;;;;;5095164;28;20535;-68
2024/01/03 03:57:39;;;;;;;11.00;3.60;;;;;;;;;;5105080;28;20491;-68
2024/01/03 04:00:07;;;;;;;5.27;3.07;;;;;;;;;;5085379;28;20685;-67
2024/01/03 04:02:34;;;;;;;12.23;4.33;;;;;;;;;;5092857;28;20435;-67
2024/01/03 04:05:02;;;;;;;5.70;3.00;;;;;;;;;;5095380;28;20490;-67
2024/01/03 04:07:31;;;;;;;9.13;3.20;;;;;;;;;;5092786;28;20443;-68
2024/01/03 04:09:57;;;;;;;4.97;3.00;;;;;;;;;;5091648;28;20457;-67
2024/01/03 04:12:23;;;;;;;11.20;3.00;;;;;;;;;;5092495;28;20562;-67
2024/01/03 04:14:50;;;;;;;8.33;3.57;;;;;;;;;;5094149;28;21047;-67
2024/01/03 04:17:16;;;;;;;8.10;3.00;;;;;;;;;;5100557;28;20438;-68
2024/01/03 04:19:43;;;;;;;5.67;2.47;;;;;;;;;;5097925;28;20872;-68
2024/01/03 04:22:10;;;;;;;6.53;2.60;;;;;;;;;;5096860;28;20516;-67
2024/01/03 04:24:37;;;;;;;13.43;3.33;;;;;;;;;;5092335;28;20515;-69
2024/01/03 04:27:03;;;;;;;5.67;3.00;;;;;;;;;;5093174;28;20499;-67
2024/01/03 04:29:30;;;;;;;6.77;2.70;;;;;;;;;;5106244;28;20504;-68
2024/01/03 04:31:56;;;;;;;6.80;2.80;;;;;;;;;;5102135;28;20494;-68
2024/01/03 04:34:22;;;;;;;6.63;2.90;;;;;;;;;;5098829;28;20531;-69
2024/01/03 04:36:49;;;;;;;7.17;3.47;;;;;;;;;;5100120;28;20593;-69
2024/01/03 04:39:17;;;;;;;6.03;2.90;;;;;;;;;;5093726;28;20477;-69
2024/01/03 04:41:43;;;;;;;6.10;2.67;;;;;;;;;;5101188;28;20459;-68
2024/01/03 04:44:10;;;;;;;6.43;2.53;;;;;;;;;;5103330;28;20529;-68
2024/01/03 04:46:36;;;;;;;4.07;3.00;;;;;;;;;;5098115;28;20470;-69
2024/01/03 04:49:03;;;;;;;7.37;3.20;;;;;;;;;;5088581;28;20609;-68
2024/01/03 04:51:29;;;;;;;4.17;2.73;;;;;;;;;;5093944;28;20482;-68
2024/01/03 04:53:55;;;;;;;6.80;2.80;;;;;;;;;;5097425;28;20523;-68
2024/01/03 04:56:25;;;;;;;5.50;2.83;;;;;;;;;;5096826;28;20534;-68
2024/01/03 04:58:52;;;;;;;8.10;3.20;;;;;;;;;;5101199;28;20444;-69
2024/01/03 05:01:18;;;;;;;7.00;2.90;;;;;;;;;;5096045;28;20519;-70
2024/01/03 05:03:45;;;;;;;8.63;3.23;;;;;;;;;;5092522;28;20529;-69
2024/01/03 05:06:12;;;;;;;12.40;3.23;;;;;;;;;;5095679;28;20456;-70
2024/01/03 05:08:38;;;;;;;11.37;3.93;;;;;;;;;;5101514;28;20466;-69
2024/01/03 05:11:04;;;;;;;4.20;3.20;;;;;;;;;;5093179;28;20550;-69
2024/01/03 05:13:32;;;;;;;6.73;3.03;;;;;;;;;;5089204;28;21152;-69
2024/01/03 05:15:59;;;;;;;9.63;3.17;;;;;;;;;;5096650;28;21143;-70
2024/01/03 05:18:26;;;;;;;8.63;3.00;;;;;;;;;;5091872;28;20474;-69
2024/01/03 05:20:53;;;;;;;6.90;3.30;;;;;;;;;;5084381;28;20468;-70
2024/01/03 05:23:19;;;;;;;7.10;3.57;;;;;;;;;;5088855;28;20475;-69
2024/01/03 05:25:47;;;;;;;4.97;3.10;;;;;;;;;;5101213;28;20511;-70
2024/01/03 05:28:13;;;;;;;6.90;2.97;;;;;;;;;;5096994;28;20514;-70
2024/01/03 05:30:41;;;;;;;3.67;2.60;;;;;;;;;;5086461;28;20468;-70
2024/01/03 05:33:07;;;;;;;5.93;3.53;;;;;;;;;;5092751;28;20585;-69
2024/01/03 05:35:34;;;;;;;8.10;4.40;;;;;;;;;;5090283;28;20521;-70
2024/01/03 05:38:00;;;;;;;5.20;3.13;;;;;;;;;;5095985;28;20507;-69
2024/01/03 05:40:26;;;;;;;11.40;3.83;;;;;;;;;;5098268;28;20526;-69
2024/01/03 05:42:53;;;;;;;12.90;3.80;;;;;;;;;;5096654;28;20535;-70
2024/01/03 05:45:19;;;;;;;4.80;3.03;;;;;;;;;;5102125;28;20488;-69
2024/01/03 05:47:47;;;;;;;6.30;3.57;;;;;;;;;;5091287;28;20470;-69
2024/01/03 05:50:13;;;;;;;9.30;4.23;;;;;;;;;;5101391;28;20573;-68
2024/01/03 05:52:40;;;;;;;7.00;3.93;;;;;;;;;;5110976;28;21332;-70
2024/01/03 05:55:07;;;;;;;7.07;3.70;;;;;;;;;;5095665;28;20474;-69
2024/01/03 05:57:33;;;;;;;7.03;3.53;;;;;;;;;;5093088;28;20431;-69
2024/01/03 06:00:00;;;;;;;5.90;3.37;;;;;;;;;;5097861;28;20458;-68
2024/01/03 06:02:26;;;;;;;7.97;3.47;;;;;;;;;;5102172;28;20486;-68
2024/01/03 06:04:54;;;;;;;6.93;3.40;;;;;;;;;;5106232;28;20514;-68
2024/01/03 06:07:20;;;;;;;3.83;2.90;;;;;;;;;;5102609;28;20467;-68
2024/01/03 06:09:47;;;;;;;7.47;3.00;;;;;;;;;;5102817;28;20566;-70
2024/01/03 06:12:13;;;;;;;7.00;3.17;;;;;;;;;;5098454;28;20564;-69
2024/01/03 06:14:39;;;;;;;3.80;3.03;;;;;;;;;;5104247;28;20882;-69
2024/01/03 06:17:06;;;;;;;8.20;2.80;;;;;;;;;;5104142;28;20503;-69
2024/01/03 06:19:32;;;;;;;3.63;2.73;;;;;;;;;;5094872;28;20498;-69
2024/01/03 06:22:00;;;;;;;4.00;2.53;;;;;;;;;;5089449;28;20514;-69
2024/01/03 06:24:26;;;;;;;8.50;2.63;;;;;;;;;;5100315;28;20522;-70
2024/01/03 06:26:53;;;;;;;13.17;3.77;;;;;;;;;;5104754;28;20572;-70
2024/01/03 06:29:19;;;;;;;8.10;3.10;;;;;;;;;;5100801;28;20483;-70
2024/01/03 06:31:46;;;;;;;8.37;3.87;;;;;;;;;;5093999;28;20562;-70
2024/01/03 06:34:12;;;;;;;7.43;2.50;;;;;;;;;;5091056;28;20520;-70
2024/01/03 06:36:38;;;;;;;3.07;2.77;;;;;;;;;;5102733;28;20497;-69
2024/01/03 06:39:06;;;;;;;4.23;2.90;;;;;;;;;;5102193;28;20541;-70
2024/01/03 06:41:32;;;;;;;4.20;2.50;;;;;;;;;;5103830;28;20505;-70
2024/01/03 06:43:59;;;;;;;8.67;2.57;;;;;;;;;;5096002;28;20448;-69
2024/01/03 06:46:25;;;;;;;5.43;3.30;;;;;;;;;;5088544;28;21057;-70
2024/01/03 06:48:52;;;;;;;7.17;3.43;;;;;;;;;;5104430;28;20510;-70
2024/01/03 06:51:20;;;;;;;8.70;3.80;;;;;;;;;;5096903;28;20483;-70
2024/01/03 06:53:47;;;;;;;7.20;2.37;;;;;;;;;;5094470;28;20478;-70
2024/01/03 06:56:19;;;;;;;12.33;4.80;;;;;;;;;;5096868;28;20486;-70
2024/01/03 06:58:45;;;;;;;2.90;2.23;;;;;;;;;;5105647;28;20533;-69
2024/01/03 07:01:12;;;;;;;5.40;3.20;;;;;;;;;;5097299;28;20533;-68
2024/01/03 07:03:38;;;;;;;6.33;3.30;;;;;;;;;;5095881;28;20491;-69
2024/01/03 07:06:05;;;;;;;4.47;3.33;;;;;;;;;;5100727;28;20522;-70
2024/01/03 07:08:31;;;;;;;6.70;3.47;;;;;;;;;;5094812;28;20502;-69
2024/01/03 07:10:57;;;;;;;5.17;3.50;;;;;;;;;;5098235;28;20533;-70
2024/01/03 07:13:25;;;;;;;5.30;2.90;;;;;;;;;;5096780;28;20574;-69
2024/01/03 07:15:52;;;;;;;10.17;3.63;;;;;;;;;;5101675;28;20474;-70
2024/01/03 07:18:18;;;;;;;6.10;3.40;;;;;;;;;;5095462;28;20467;-71
2024/01/03 07:20:44;;;;;;;5.90;3.00;;;;;;;;;;5094209;28;20478;-71
2024/01/03 07:23:11;;;;;;;10.80;3.10;;;;;;;;;;5097232;28;20522;-71
2024/01/03 07:25:37;;;;;;;6.87;3.47;;;;;;;;;;5099297;28;20496;-71
2024/01/03 07:28:04;;;;;;;5.90;3.53;;;;;;;;;;5098443;28;20525;-68
2024/01/03 07:30:32;;;;;;;3.63;3.10;;;;;;;;;;5096745;28;20454;-69
2024/01/03 07:32:58;;;;;;;4.10;3.57;;;;;;;;;;5095791;28;21065;-70
2024/01/03 07:35:25;;;;;;;3.87;3.40;;;;;;;;;;5095982;28;20545;-69
2024/01/03 07:37:51;;;;;;;4.50;4.10;;;;;;;;;;5093411;28;20455;-69
2024/01/03 07:40:18;;;;;;;5.13;4.27;;;;;;;;;;5096421;28;20519;-70
2024/01/03 07:42:44;;;;;;;3.80;3.20;;;;;;;;;;5104823;28;20558;-69
2024/01/03 07:45:11;;;;;;;3.63;3.30;;;;;;;;;;5096907;28;20546;-69
2024/01/03 07:47:38;;;;;;;4.30;3.20;;;;;;;;;;5097198;28;20470;-70
2024/01/03 07:50:05;;;;;;;6.13;3.33;;;;;;;;;;5097383;28;20562;-69
2024/01/03 07:52:32;;;;;;;3.27;3.07;;;;;;;;;;5097474;28;20514;-70
2024/01/03 07:54:58;;;;;;;3.10;2.80;;;;;;;;;;5101273;28;20514;-70
2024/01/03 07:57:24;;;;;;;4.43;3.00;;;;;;;;;;5097977;28;20542;-70
2024/01/03 07:59:51;;;;;;;5.40;3.40;;;;;;;;;;5096921;28;20505;-69
2024/01/03 08:02:17;;;;;;;4.87;3.00;;;;;;;;;;5092969;28;20486;-70
2024/01/03 08:04:45;;;;;;;8.23;3.20;;;;;;;;;;5087276;28;20517;-70
2024/01/03 08:07:14;;;;;;;5.97;3.10;;;;;;;;;;5093545;28;20457;-71
2024/01/03 08:09:40;;;;;;;4.00;3.33;;;;;;;;;;5093683;28;20498;-70
2024/01/03 08:12:08;;;;;;;3.30;2.70;;;;;;;;;;5107359;28;20549;-70
2024/01/03 08:14:35;;;;;;;5.33;3.00;;;;;;;;;;5093908;28;20459;-70
2024/01/03 08:17:02;;;;;;;3.70;2.70;;;;;;;;;;5104801;28;20439;-69
2024/01/03 08:19:28;;;;;;;6.77;3.13;;;;;;;;;;5099226;28;20459;-69
2024/01/03 08:21:56;;;;;;;4.50;2.80;;;;;;;;;;5104894;28;20466;-68
2024/01/03 08:24:22;;;;;;;6.47;3.30;;;;;;;;;;5094026;28;20507;-68
2024/01/03 08:26:49;;;;;;;4.43;3.23;;;;;;;;;;5097583;28;20483;-69
2024/01/03 08:29:15;;;;;;;3.90;3.57;;;;;;;;;;5093551;28;20443;-68
2024/01/03 08:31:42;;;;;;;3.00;2.70;;;;;;;;;;5089551;28;20495;-68
2024/01/03 08:34:08;;;;;;;2.93;2.57;;;;;;;;;;5098508;28;20483;-68
2024/01/03 08:36:41;;;;;;;3.40;3.10;;;;;;;;;;5104680;28;20537;-69
2024/01/03 08:39:09;;;;;;;3.63;2.50;;;;;;;;;;5097346;28;20447;-68
2024/01/03 08:41:35;;;;;;;4.10;2.73;;;;;;;;;;5097107;28;20457;-67
2024/01/03 08:44:05;;;;;;;6.60;3.23;;;;;;;;;;5091113;28;20602;-66
2024/01/03 08:46:34;;;;;;;4.73;2.90;;;;;;;;;;5094566;28;20451;-67
2024/01/03 08:49:00;;;;;;;7.30;2.10;;;;;;;;;;5090082;28;20487;-67
2024/01/03 08:51:27;;;;;;;2.17;1.90;;;;;;;;;;5096200;28;20435;-71
2024/01/03 08:53:53;;;;;;;4.20;1.90;;;;;;;;;;5097287;28;21014;-71
2024/01/03 08:56:21;;;;;;;2.90;2.30;;;;;;;;;;5094654;28;20465;-71
2024/01/03 08:58:48;;;;;;;4.60;2.00;;;;;;;;;;5092978;28;20525;-71
2024/01/03 09:01:16;;;;;;;3.93;1.70;;;;;;;;;;5108224;28;20443;-72
2024/01/03 09:03:42;;;;;;;4.60;2.00;;;;;;;;;;5092287;28;20466;-72
2024/01/03 09:06:08;;;;;;;1.63;1.33;;;;;;;;;;5105299;28;20538;-72
2024/01/03 09:08:35;;;;;;;3.50;1.63;;;;;;;;;;5097793;28;20470;-72
2024/01/03 09:11:01;;;;;;;3.20;1.33;;;;;;;;;;5101819;28;20494;-72
2024/01/03 09:13:31;;;;;;;2.07;1.63;;;;;;;;;;5096471;28;20641;-72
2024/01/03 09:15:57;;;;;;;3.00;1.40;;;;;;;;;;5091426;28;20457;-71
2024/01/03 09:18:24;;;;;;;2.10;1.10;;;;;;;;;;5099993;28;20451;-72
2024/01/03 09:20:50;;;;;;;5.90;1.50;;;;;;;;;;5098972;28;20483;-71
2024/01/03 09:23:16;;;;;;;1.97;1.23;;;;;;;;;;5097012;28;20496;-72
2024/01/03 09:25:43;;;;;;;1.80;1.30;;;;;;;;;;5086411;28;20455;-71
2024/01/03 09:28:10;;;;;;;5.50;1.57;;;;;;;;;;5097429;28;20677;-71
2024/01/03 09:30:38;;;;;;;2.30;1.43;;;;;;;;;;5095022;28;20455;-71
2024/01/03 09:33:05;;;;;;;4.70;1.73;;;;;;;;;;5101952;28;20506;-71
2024/01/03 09:35:31;;;;;;;4.20;1.50;;;;;;;;;;5103952;28;20546;-72
2024/01/03 09:37:58;;;;;;;2.30;1.17;;;;;;;;;;5097671;28;20463;-72
2024/01/03 09:40:24;;;;;;;4.70;1.10;;;;;;;;;;5090273;28;21191;-72
2024/01/03 09:42:51;;;;;;;2.57;1.20;;;;;;;;;;5094914;28;20518;-72
2024/01/03 09:45:17;;;;;;;1.57;1.40;;;;;;;;;;5103906;28;20542;-71
2024/01/03 09:47:45;;;;;;;3.03;1.10;;;;;;;;;;5087721;28;20451;-70
2024/01/03 09:50:12;;;;;;;2.70;0.90;;;;;;;;;;5094226;28;20483;-71
2024/01/03 09:52:40;;;;;;;2.73;1.50;;;;;;;;;;5095958;28;20509;-71
2024/01/03 09:55:09;;;;;;;3.40;1.10;;;;;;;;;;5091596;28;20479;-71
2024/01/03 09:57:35;;;;;;;1.50;1.00;;;;;;;;;;5105566;28;20515;-72
2024/01/03 10:00:02;;;;;;;1.87;1.00;;;;;;;;;;5101294;28;20478;-73
2024/01/03 10:02:28;;;;;;;2.20;1.03;;;;;;;;;;5099236;28;20469;-74
2024/01/03 10:04:56;;;;;;;4.37;1.23;;;;;;;;;;5095595;28;20447;-74
2024/01/03 10:07:31;;;;;;;3.10;1.20;;;;;;;;;;5084358;28;20540;-71
2024/01/03 10:09:58;;;;;;;1.23;0.90;;;;;;;;;;5093319;28;20545;-73
2024/01/03 10:12:25;;;;;;;1.70;1.07;;;;;;;;;;5100499;28;20479;-79
2024/01/03 10:14:51;;;;;;;2.00;1.40;;;;;;;;;;5095479;28;20482;-76
2024/01/03 10:17:17;;;;;;;2.13;0.97;;;;;;;;;;5102202;28;20861;-72
2024/01/03 10:19:44;;;;;;;3.43;1.20;;;;;;;;;;5103769;28;21018;-76
2024/01/03 10:22:12;;;;;;;2.47;1.10;;;;;;;;;;5101599;28;20441;-74
2024/01/03 10:24:42;;;;;;;1.97;1.30;;;;;;;;;;5101028;28;20542;-73
2024/01/03 10:27:09;;;;;;;4.40;1.47;;;;;;;;;;5100618;28;20447;-73
2024/01/03 10:29:36;;;;;;;2.70;1.60;;;;;;;;;;5097686;28;20502;-74
2024/01/03 10:32:05;;;;;;;3.40;1.40;;;;;;;;;;5082790;28;20997;-73
2024/01/03 10:34:31;;;;;;;3.80;1.60;;;;;;;;;;5094759;28;20574;-74
2024/01/03 10:36:58;;;;;;;1.57;1.27;;;;;;;;;;5086342;28;20519;-74
2024/01/03 10:39:26;;;;;;;5.23;1.47;;;;;;;;;;5088879;28;20454;-73
2024/01/03 10:41:53;;;;;;;1.47;1.20;;;;;;;;;;5087000;28;20834;-74
2024/01/03 10:44:20;;;;;;;2.13;1.73;;;;;;;;;;5088018;28;20439;-74
2024/01/03 10:46:47;;;;;;;2.10;1.70;;;;;;;;;;5094620;28;20461;-74
2024/01/03 10:49:15;;;;;;;5.23;2.00;;;;;;;;;;5101796;28;20494;-74
2024/01/03 10:51:43;;;;;;;6.00;2.07;;;;;;;;;;5098183;28;20490;-74
2024/01/03 10:54:11;;;;;;;3.80;1.87;;;;;;;;;;5099694;28;20514;-74
2024/01/03 10:56:39;;;;;;;4.47;2.00;;;;;;;;;;5101645;28;20488;-73
2024/01/03 10:59:06;;;;;;;2.93;1.90;;;;;;;;;;5100544;28;20526;-74
2024/01/03 11:01:34;;;;;;;3.17;1.90;;;;;;;;;;5106070;28;20485;-74
2024/01/03 11:04:07;;;;;;;5.00;2.40;;;;;;;;;;5102904;28;20468;-73
2024/01/03 11:06:37;;;;;;;5.23;2.30;;;;;;;;;;5102437;28;20457;-72
2024/01/03 11:09:03;;;;;;;4.93;1.97;;;;;;;;;;5106432;28;20454;-73
2024/01/03 11:11:30;;;;;;;5.43;2.30;;;;;;;;;;5099556;28;20542;-72
2024/01/03 11:13:58;;;;;;;7.70;2.20;;;;;;;;;;5097407;28;20486;-74
2024/01/03 11:16:36;;;;;;;4.70;2.70;;;;;;;;;;5107524;28;20542;-73
2024/01/03 11:19:02;;;;;;;7.00;2.63;;;;;;;;;;5101227;28;20454;-72
2024/01/03 11:21:39;;;;;;;4.00;2.27;;;;;;;;;;5107399;28;20916;-73
2024/01/03 11:24:25;;;;;;;11.70;3.03;;;;;;;;;;5111644;28;20455;-73
2024/01/03 11:27:03;;;;;;;7.60;2.60;;;;;;;;;;5101271;28;20481;-73
2024/01/03 11:29:44;;;;;;;5.50;2.97;;;;;;;;;;5105710;28;20501;-74
2024/01/03 11:32:11;;;;;;;3.63;2.83;;;;;;;;;;5100922;28;20503;-73
2024/01/03 11:34:37;;;;;;;6.07;2.80;;;;;;;;;;5101464;28;20487;-73
2024/01/03 11:37:04;;;;;;;8.20;3.60;;;;;;;;;;5101094;28;20518;-72
2024/01/03 11:39:34;;;;;;;6.53;3.30;;;;;;;;;;5097994;28;20458;-73
2024/01/03 11:42:01;;;;;;;9.10;3.53;;;;;;;;;;5098130;28;20530;-73
2024/01/03 11:44:27;;;;;;;7.63;3.77;;;;;;;;;;5095456;28;20474;-73
2024/01/03 11:46:59;;;;;;;6.77;3.83;;;;;;;;;;5098354;28;20474;-73
2024/01/03 11:49:25;;;;;;;5.97;3.73;;;;;;;;;;5097534;28;20511;-73
2024/01/03 11:51:55;;;;;;;7.00;3.03;;;;;;;;;;5093565;28;20451;-73
2024/01/03 11:54:22;;;;;;;8.13;2.83;;;;;;;;;;5086570;28;20487;-73
2024/01/03 11:56:48;;;;;;;11.30;3.60;;;;;;;;;;5098580;28;20546;-73
2024/01/03 11:59:19;;;;;;;16.10;3.40;;;;;;;;;;5095904;28;21447;-73
2024/01/03 12:01:55;;;;;;;7.00;3.30;;;;;;;;;;5090750;28;20590;-74
2024/01/03 12:04:23;;;;;;;11.40;3.90;;;;;;;;;;5089534;28;20534;-73
2024/01/03 12:06:49;;;;;;;8.57;3.87;;;;;;;;;;5093285;28;20866;-73
2024/01/03 12:09:17;;;;;;;13.10;4.20;;;;;;;;;;5105499;28;20527;-73
2024/01/03 12:11:43;;;;;;;7.70;3.33;;;;;;;;;;5096908;28;20450;-71
2024/01/03 12:14:10;;;;;;;6.77;2.80;;;;;;;;;;5095862;28;20605;-71
2024/01/03 12:16:45;;;;;;;7.37;3.30;;;;;;;;;;5092268;28;20486;-69
2024/01/03 12:19:21;;;;;;;8.87;2.70;;;;;;;;;;5092908;28;20534;-71
2024/01/03 12:21:54;;;;;;;8.03;2.90;;;;;;;;;;5105913;28;20522;-67
2024/01/03 12:24:21;;;;;;;8.23;2.53;;;;;;;;;;5095703;28;20485;-67
2024/01/03 12:26:48;;;;;;;8.23;2.80;;;;;;;;;;5087070;28;20485;-67
2024/01/03 12:29:15;;;;;;;14.73;3.87;;;;;;;;;;5097159;28;20490;-72
2024/01/03 12:31:41;;;;;;;8.27;3.67;;;;;;;;;;5101442;28;20486;-70
2024/01/03 12:34:08;;;;;;;4.73;2.30;;;;;;;;;;5101468;28;20487;-70
2024/01/03 12:36:35;;;;;;;7.30;2.40;;;;;;;;;;5098182;28;20495;-70
2024/01/03 12:39:03;;;;;;;7.70;2.90;;;;;;;;;;5094796;28;20471;-70
2024/01/03 12:41:29;;;;;;;11.63;3.63;;;;;;;;;;5095250;28;20546;-72
2024/01/03 12:43:56;;;;;;;10.60;3.20;;;;;;;;;;5106364;28;21092;-75
2024/01/03 12:46:22;;;;;;;9.20;3.73;;;;;;;;;;5101074;28;20457;-65
2024/01/03 12:48:48;;;;;;;7.57;3.70;;;;;;;;;;5099628;28;20482;-65
2024/01/03 12:51:15;;;;;;;7.13;2.80;;;;;;;;;;5103258;28;20454;-68
2024/01/03 12:53:41;;;;;;;15.63;3.80;;;;;;;;;;5108395;28;20494;-69
2024/01/03 12:56:09;;;;;;;10.70;2.60;;;;;;;;;;5100491;28;20487;-69
2024/01/03 12:58:35;;;;;;;9.77;3.67;;;;;;;;;;5094213;28;20465;-68
2024/01/03 13:01:02;;;;;;;9.17;3.00;;;;;;;;;;5091207;28;20459;-69
2024/01/03 13:03:28;;;;;;;8.60;3.50;;;;;;;;;;5093828;28;20446;-68
2024/01/03 13:05:55;;;;;;;6.67;3.27;;;;;;;;;;5100852;28;20511;-69
2024/01/03 13:08:21;;;;;;;5.67;3.10;;;;;;;;;;5096654;28;20458;-69
2024/01/03 13:10:47;;;;;;;15.03;2.67;;;;;;;;;;5103806;28;20450;-69
2024/01/03 13:13:15;;;;;;;13.63;3.40;;;;;;;;;;5100419;28;20972;-68
2024/01/03 13:15:44;;;;;;;10.83;2.77;;;;;;;;;;5093811;28;21212;-68
2024/01/03 13:18:10;;;;;;;15.07;4.67;;;;;;;;;;5085171;28;20463;-66
2024/01/03 13:20:36;;;;;;;9.20;3.07;;;;;;;;;;5100172;28;20486;-67
2024/01/03 13:23:03;;;;;;;9.37;2.47;;;;;;;;;;5099664;28;20467;-69
2024/01/03 13:25:29;;;;;;;7.97;2.80;;;;;;;;;;5086445;28;20539;-68
2024/01/03 13:27:55;;;;;;;6.53;2.73;;;;;;;;;;5097557;28;20463;-68
2024/01/03 13:30:23;;;;;;;7.90;3.20;;;;;;;;;;5097421;28;20479;-67
2024/01/03 13:32:50;;;;;;;12.63;2.83;;;;;;;;;;5101569;28;20966;-67
2024/01/03 13:35:16;;;;;;;7.80;3.03;;;;;;;;;;5098655;28;20527;-68
2024/01/03 13:37:42;;;;;;;6.30;2.90;;;;;;;;;;5100576;28;20487;-67
2024/01/03 13:40:09;;;;;;;12.07;4.33;;;;;;;;;;5096415;28;20521;-69
2024/01/03 13:42:36;;;;;;;7.73;3.27;;;;;;;;;;5097980;28;20538;-70
2024/01/03 13:45:02;;;;;;;4.80;2.80;;;;;;;;;;5102990;28;20451;-70
2024/01/03 13:47:30;;;;;;;5.13;2.83;;;;;;;;;;5098458;28;20537;-70
2024/01/03 13:49:56;;;;;;;6.30;2.90;;;;;;;;;;5111016;28;20520;-69
2024/01/03 13:52:22;;;;;;;16.40;3.00;;;;;;;;;;5097783;28;21023;-69
2024/01/03 13:54:49;;;;;;;12.43;3.37;;;;;;;;;;5094998;28;20591;-70
2024/01/03 13:57:15;;;;;;;8.03;2.93;;;;;;;;;;5100516;28;20481;-67
2024/01/03 13:59:42;;;;;;;6.90;2.40;;;;;;;;;;5099222;28;20997;-69
2024/01/03 14:02:09;;;;;;;11.33;4.90;;;;;;;;;;5093418;28;20546;-69
2024/01/03 14:04:39;;;;;;;9.40;2.60;;;;;;;;;;5104829;28;20890;-69
2024/01/03 14:07:06;;;;;;;7.53;2.80;;;;;;;;;;5094593;28;20871;-68
2024/01/03 14:09:32;;;;;;;8.57;3.53;;;;;;;;;;5105198;28;20653;-72
2024/01/03 14:11:59;;;;;;;12.23;3.43;;;;;;;;;;5098157;28;20442;-68
2024/01/03 14:14:26;;;;;;;13.33;2.67;;;;;;;;;;5095882;28;20518;-67
2024/01/03 14:16:54;;;;;;;7.63;3.33;;;;;;;;;;5102349;28;20455;-67
2024/01/03 14:19:20;;;;;;;6.87;2.93;;;;;;;;;;5088553;28;20925;-67
2024/01/03 14:21:50;;;;;;;12.03;2.97;;;;;;;;;;5093130;28;20567;-69
2024/01/03 14:24:17;;;;;;;12.47;3.20;;;;;;;;;;5097015;28;20458;-70
2024/01/03 14:26:43;;;;;;;9.63;2.70;;;;;;;;;;5087938;28;20448;-70
2024/01/03 14:29:10;;;;;;;5.10;2.57;;;;;;;;;;5112419;28;20550;-70
2024/01/03 14:31:36;;;;;;;5.00;3.20;;;;;;;;;;5103077;28;20472;-69
2024/01/03 14:34:03;;;;;;;5.83;3.60;;;;;;;;;;5107958;28;21017;-71
2024/01/03 14:36:29;;;;;;;12.93;3.17;;;;;;;;;;5100542;28;20482;-67
2024/01/03 14:38:57;;;;;;;5.90;2.80;;;;;;;;;;5103858;28;20533;-68
2024/01/03 14:41:25;;;;;;;7.17;4.37;;;;;;;;;;5096647;28;20463;-69